Time;durP1;ratioP1;P1;durP2;ratioP2;P2;SDS_P1;SDS_P2;PMS_P1;PMS_P2;Temp;Humidity;BMP_temperature;BMP_pressure;BME280_temperature;BME280_humidity;BME280_pressure;Samples;Min_cycle;Max_cycle;Signal;HPM_P1;HPM_P2
2022/12/03 00:00:13;;;;;;;35.97;19.65;;;4.00;97.30;;;;;;5017931;28;20026;-70
2022/12/03 00:02:39;;;;;;;34.85;19.45;;;4.00;96.90;;;;;;5035362;28;20109;-70
2022/12/03 00:05:05;;;;;;;35.55;18.77;;;3.90;97.20;;;;;;5018131;28;20386;-70
2022/12/03 00:07:30;;;;;;;36.33;20.02;;;3.80;97.40;;;;;;5017716;28;20034;-70
2022/12/03 00:09:56;;;;;;;36.58;18.98;;;3.90;97.40;;;;;;5017877;28;20029;-70
2022/12/03 00:12:22;;;;;;;39.30;21.70;;;3.90;97.30;;;;;;5034826;28;20033;-70
2022/12/03 00:14:47;;;;;;;33.53;18.65;;;3.80;97.20;;;;;;5001228;28;20125;-70
2022/12/03 00:17:13;;;;;;;35.20;19.98;;;3.70;97.50;;;;;;5034457;28;20048;-70
2022/12/03 00:19:38;;;;;;;35.58;20.20;;;3.70;97.60;;;;;;5035415;28;20033;-71
2022/12/03 00:22:07;;;;;;;37.85;20.05;;;3.80;97.60;;;;;;5035118;28;20386;-70
2022/12/03 00:24:33;;;;;;;35.38;19.45;;;3.90;97.60;;;;;;5035053;28;20030;-70
2022/12/03 00:26:58;;;;;;;35.38;20.17;;;3.90;97.40;;;;;;5018170;28;20324;-70
2022/12/03 00:29:24;;;;;;;36.45;20.02;;;4.00;97.20;;;;;;5035226;28;20386;-70
2022/12/03 00:31:49;;;;;;;33.75;19.92;;;3.80;97.50;;;;;;5035277;28;20053;-70
2022/12/03 00:34:15;;;;;;;40.08;21.20;;;3.90;97.60;;;;;;5035503;28;20033;-70
2022/12/03 00:36:41;;;;;;;37.55;21.02;;;3.90;97.50;;;;;;5033731;28;20517;-70
2022/12/03 00:39:06;;;;;;;36.55;21.85;;;3.90;97.60;;;;;;5035057;28;20034;-70
2022/12/03 00:41:32;;;;;;;42.13;20.05;;;3.80;97.70;;;;;;5035360;28;20473;-70
2022/12/03 00:43:58;;;;;;;38.33;21.45;;;3.70;98.10;;;;;;5034753;28;20504;-70
2022/12/03 00:46:24;;;;;;;39.28;21.48;;;3.90;98.20;;;;;;5034949;28;20113;-70
2022/12/03 00:48:50;;;;;;;42.92;22.50;;;3.90;97.90;;;;;;5034922;28;20037;-70
2022/12/03 00:51:15;;;;;;;38.10;21.85;;;3.90;97.90;;;;;;5034886;28;20377;-70
2022/12/03 00:53:41;;;;;;;40.38;21.83;;;3.90;98.00;;;;;;5034847;28;20442;-70
2022/12/03 00:56:07;;;;;;;41.80;21.95;;;3.90;98.00;;;;;;5016891;28;20493;-70
2022/12/03 00:58:32;;;;;;;39.45;21.65;;;3.90;98.00;;;;;;5033039;28;20029;-70
2022/12/03 01:00:58;;;;;;;40.17;23.20;;;3.90;98.50;;;;;;5016930;28;20544;-71
2022/12/03 01:03:24;;;;;;;41.53;22.38;;;4.00;98.30;;;;;;5033468;28;20033;-70
2022/12/03 01:05:49;;;;;;;44.55;23.48;;;4.00;98.10;;;;;;5034279;28;20497;-70
2022/12/03 01:08:15;;;;;;;41.15;22.60;;;4.00;98.10;;;;;;5032839;28;20038;-70
2022/12/03 01:10:41;;;;;;;41.00;22.42;;;3.80;98.30;;;;;;5016702;28;20076;-71
2022/12/03 01:13:06;;;;;;;41.42;23.02;;;3.80;98.60;;;;;;5033494;28;20033;-70
2022/12/03 01:15:32;;;;;;;42.70;22.02;;;4.00;98.50;;;;;;5034163;28;20064;-71
2022/12/03 01:18:01;;;;;;;42.13;22.80;;;3.90;98.30;;;;;;5032757;28;20041;-70
2022/12/03 01:20:27;;;;;;;41.78;22.88;;;3.80;98.60;;;;;;5017006;28;20029;-70
2022/12/03 01:22:52;;;;;;;40.15;22.48;;;3.70;98.80;;;;;;5033572;28;20036;-71
2022/12/03 01:25:18;;;;;;;41.08;21.85;;;3.60;99.10;;;;;;5032718;28;20033;-70
2022/12/03 01:27:44;;;;;;;45.60;23.42;;;3.70;99.30;;;;;;5034663;28;20055;-70
2022/12/03 01:30:11;;;;;;;42.03;22.05;;;3.80;99.30;;;;;;5016010;28;20389;-70
2022/12/03 01:32:37;;;;;;;41.90;22.73;;;3.90;99.20;;;;;;5033961;28;20057;-70
2022/12/03 01:35:03;;;;;;;43.08;23.73;;;3.90;98.80;;;;;;5032516;28;20122;-70
2022/12/03 01:37:29;;;;;;;46.03;22.98;;;3.70;98.90;;;;;;5033090;28;20164;-70
2022/12/03 01:39:54;;;;;;;42.25;22.65;;;3.70;99.30;;;;;;5033994;28;20539;-70
2022/12/03 01:42:25;;;;;;;44.85;23.40;;;3.70;99.40;;;;;;5034111;28;20035;-70
2022/12/03 01:44:54;;;;;;;41.03;22.35;;;3.70;99.30;;;;;;5033811;28;20029;-70
2022/12/03 01:47:25;;;;;;;42.20;22.95;;;3.70;99.30;;;;;;5033486;28;20073;-70
2022/12/03 01:50:21;;;;;;;45.25;23.42;;;3.70;99.30;;;;;;5016265;28;20022;-70
2022/12/03 01:52:47;;;;;;;46.90;24.52;;;3.80;99.20;;;;;;5033727;28;20041;-70
2022/12/03 01:55:17;;;;;;;44.17;22.80;;;3.70;99.30;;;;;;5033849;28;20387;-70
2022/12/03 01:57:49;;;;;;;40.25;21.73;;;3.60;99.60;;;;;;5033325;28;20033;-70
2022/12/03 02:00:20;;;;;;;45.70;23.02;;;3.80;99.60;;;;;;5033968;28;20025;-70
2022/12/03 02:02:50;;;;;;;45.08;23.40;;;3.90;99.30;;;;;;5033688;28;20029;-70
2022/12/03 02:05:23;;;;;;;46.08;24.33;;;4.00;99.10;;;;;;5032325;28;20037;-70
2022/12/03 02:07:49;;;;;;;45.65;24.70;;;3.90;98.90;;;;;;5016578;28;20091;-70
2022/12/03 02:10:18;;;;;;;44.00;23.83;;;3.80;99.00;;;;;;5032978;28;20103;-70
2022/12/03 02:12:55;;;;;;;42.78;23.70;;;3.90;99.10;;;;;;5033990;28;20026;-70
2022/12/03 02:15:21;;;;;;;45.80;23.40;;;3.90;99.10;;;;;;5032605;28;20120;-70
2022/12/03 02:17:47;;;;;;;44.85;21.88;;;4.00;99.00;;;;;;5015817;28;20029;-70
2022/12/03 02:20:13;;;;;;;46.25;22.95;;;4.00;99.00;;;;;;5032303;28;20437;-70
2022/12/03 02:23:09;;;;;;;44.05;23.73;;;4.10;98.90;;;;;;5032433;28;20037;-70
2022/12/03 02:25:36;;;;;;;43.10;23.23;;;4.20;98.80;;;;;;5033112;28;20025;-70
2022/12/03 02:28:04;;;;;;;43.65;23.05;;;4.10;98.30;;;;;;5032738;28;20478;-70
2022/12/03 02:30:31;;;;;;;43.95;23.85;;;4.10;98.60;;;;;;5033398;28;20033;-70
2022/12/03 02:32:57;;;;;;;44.30;24.17;;;4.20;98.60;;;;;;5033342;28;20044;-70
2022/12/03 02:35:25;;;;;;;40.08;23.02;;;4.10;98.40;;;;;;5033288;28;20033;-70
2022/12/03 02:38:17;;;;;;;45.58;24.50;;;4.00;98.70;;;;;;5032953;28;20041;-70
2022/12/03 02:40:45;;;;;;;46.10;23.17;;;3.90;98.90;;;;;;5033296;28;20032;-70
2022/12/03 02:43:14;;;;;;;48.03;24.58;;;4.00;99.10;;;;;;5033269;28;20080;-70
2022/12/03 02:45:43;;;;;;;43.20;23.65;;;4.10;99.00;;;;;;5033257;28;20029;-70
2022/12/03 02:48:25;;;;;;;43.28;24.02;;;4.10;98.80;;;;;;5032493;28;20033;-70
2022/12/03 02:50:54;;;;;;;44.20;24.38;;;4.10;98.80;;;;;;5014931;28;20050;-70
2022/12/03 02:53:27;;;;;;;44.08;23.35;;;4.10;98.80;;;;;;5032850;28;20432;-70
2022/12/03 02:55:54;;;;;;;46.22;25.05;;;4.10;98.80;;;;;;5033075;28;20038;-70
2022/12/03 02:58:22;;;;;;;42.85;23.65;;;4.10;98.80;;;;;;5015759;28;20061;-70
2022/12/03 03:00:49;;;;;;;42.33;23.48;;;4.10;98.90;;;;;;5016074;28;20030;-70
2022/12/03 03:03:16;;;;;;;43.83;23.98;;;4.20;98.70;;;;;;5033101;28;20030;-70
2022/12/03 03:05:43;;;;;;;44.83;24.13;;;4.20;98.70;;;;;;5033525;28;20033;-70
2022/12/03 03:08:10;;;;;;;45.15;24.58;;;4.20;98.40;;;;;;5032611;28;20398;-70
2022/12/03 03:10:38;;;;;;;46.50;24.83;;;4.20;98.50;;;;;;5031568;28;20478;-70
2022/12/03 03:13:11;;;;;;;41.17;22.27;;;4.20;98.50;;;;;;5032875;28;20026;-70
2022/12/03 03:15:38;;;;;;;42.45;24.70;;;4.30;98.40;;;;;;5031685;28;20022;-70
2022/12/03 03:18:05;;;;;;;39.70;21.40;;;4.30;98.00;;;;;;5031745;28;20533;-70
2022/12/03 03:20:31;;;;;;;41.63;23.27;;;4.30;97.80;;;;;;5032953;28;20143;-70
2022/12/03 03:23:11;;;;;;;39.80;22.17;;;4.30;97.70;;;;;;5034813;28;20182;-70
2022/12/03 03:25:39;;;;;;;41.35;23.25;;;4.40;97.60;;;;;;5036937;28;20036;-70
2022/12/03 03:28:06;;;;;;;45.03;21.95;;;4.40;97.60;;;;;;5036809;28;20045;-70
2022/12/03 03:30:32;;;;;;;39.83;22.48;;;4.50;97.40;;;;;;5036914;28;20025;-71
2022/12/03 03:32:58;;;;;;;41.65;23.10;;;4.40;97.20;;;;;;5035089;28;20124;-71
2022/12/03 03:35:24;;;;;;;43.28;24.02;;;4.30;97.40;;;;;;5019359;28;20121;-71
2022/12/03 03:37:52;;;;;;;38.33;21.63;;;4.30;97.50;;;;;;5018511;28;20034;-71
2022/12/03 03:40:19;;;;;;;37.97;21.15;;;4.20;97.50;;;;;;5036808;28;20037;-71
2022/12/03 03:42:45;;;;;;;35.25;20.23;;;4.20;97.20;;;;;;5018318;28;20029;-71
2022/12/03 03:45:11;;;;;;;37.08;20.45;;;4.10;96.70;;;;;;5035166;28;20030;-71
2022/12/03 03:47:37;;;;;;;37.45;19.10;;;4.20;96.90;;;;;;5018361;28;20040;-71
2022/12/03 03:50:04;;;;;;;34.83;19.88;;;4.20;96.90;;;;;;5036034;28;20034;-71
2022/12/03 03:52:29;;;;;;;37.30;20.60;;;4.10;96.30;;;;;;5030865;28;20058;-71
2022/12/03 03:54:55;;;;;;;31.90;18.75;;;4.10;96.30;;;;;;5014568;28;20129;-71
2022/12/03 03:57:21;;;;;;;31.33;17.75;;;4.00;96.50;;;;;;5014884;28;20129;-70
2022/12/03 03:59:47;;;;;;;35.00;18.33;;;4.00;96.20;;;;;;5016474;28;20030;-70
2022/12/03 04:02:21;;;;;;;30.42;17.60;;;3.90;96.30;;;;;;5014975;28;20041;-71
2022/12/03 04:04:47;;;;;;;31.30;18.25;;;4.00;96.00;;;;;;5016688;28;20455;-72
2022/12/03 04:07:15;;;;;;;31.08;18.25;;;3.90;95.70;;;;;;5015764;28;20072;-72
2022/12/03 04:09:40;;;;;;;32.67;18.50;;;3.90;95.60;;;;;;5015253;28;20462;-71
2022/12/03 04:14:50;;;;;;;32.38;17.83;;;3.80;95.80;;;;;;5015532;28;20041;-73
2022/12/03 04:17:16;;;;;;;31.30;16.95;;;3.70;95.80;;;;;;5014522;28;20042;-72
2022/12/03 04:19:42;;;;;;;33.97;18.25;;;3.70;96.00;;;;;;5014270;28;20065;-70
2022/12/03 04:28:47;;;;;;;34.20;18.40;;;3.90;95.90;;;;;;5014664;28;20433;-70
2022/12/03 04:30:21;;;;;;;33.42;18.48;;;3.90;95.70;;;;;;5014891;28;20501;-70
2022/12/03 04:35:42;;;;;;;34.58;18.58;;;3.90;96.00;;;;;;5014485;28;20104;-69
2022/12/03 04:38:13;;;;;;;34.00;18.58;;;3.90;96.00;;;;;;5015866;28;20046;-69
2022/12/03 04:43:23;;;;;;;32.00;17.73;;;4.00;95.90;;;;;;5015687;28;20045;-69
2022/12/03 04:45:49;;;;;;;34.88;19.35;;;4.00;96.00;;;;;;5015227;28;20037;-70
2022/12/03 04:48:15;;;;;;;34.90;18.88;;;4.10;95.90;;;;;;5030487;28;20053;-70
2022/12/03 04:50:40;;;;;;;35.78;19.63;;;4.00;95.50;;;;;;5013826;28;20034;-70
2022/12/03 04:53:06;;;;;;;35.40;19.20;;;4.00;95.50;;;;;;5034947;28;20037;-70
2022/12/03 04:55:32;;;;;;;34.05;18.67;;;3.90;95.70;;;;;;5034477;28;20041;-70
2022/12/03 04:57:58;;;;;;;36.85;19.77;;;3.90;95.80;;;;;;5033615;28;20053;-70
2022/12/03 05:00:23;;;;;;;37.67;20.58;;;3.90;95.80;;;;;;5034822;28;20033;-70
2022/12/03 05:02:49;;;;;;;35.40;19.67;;;4.00;96.10;;;;;;5033422;28;20029;-70
2022/12/03 05:05:15;;;;;;;34.97;19.35;;;4.00;96.00;;;;;;5034447;28;20116;-70
2022/12/03 05:07:41;;;;;;;40.95;22.00;;;4.00;95.90;;;;;;5034575;28;20021;-72
2022/12/03 05:10:08;;;;;;;35.72;20.00;;;3.90;96.00;;;;;;5034628;28;20045;-70
2022/12/03 05:12:33;;;;;;;37.90;20.48;;;4.00;96.30;;;;;;5033225;28;20390;-69
2022/12/03 05:14:59;;;;;;;36.95;21.23;;;4.00;96.20;;;;;;5033969;28;20029;-70
2022/12/03 05:17:25;;;;;;;39.80;21.63;;;4.00;96.30;;;;;;5034288;28;20398;-70
2022/12/03 05:22:35;;;;;;;39.75;21.88;;;4.00;96.30;;;;;;5033406;28;20087;-69
2022/12/03 05:25:00;;;;;;;37.92;21.08;;;3.90;96.30;;;;;;5017176;28;20029;-69
2022/12/03 05:27:26;;;;;;;44.42;22.70;;;3.90;96.90;;;;;;5032932;28;20064;-70
2022/12/03 05:29:52;;;;;;;37.75;22.17;;;3.90;96.70;;;;;;5034517;28;20025;-69
2022/12/03 05:32:18;;;;;;;39.97;22.02;;;3.80;96.70;;;;;;5032692;28;20460;-70
2022/12/03 05:34:43;;;;;;;44.47;23.33;;;3.80;96.90;;;;;;5032635;28;20474;-69
2022/12/03 05:37:09;;;;;;;41.42;22.50;;;3.80;97.00;;;;;;5033654;28;20068;-69
2022/12/03 05:39:35;;;;;;;39.08;21.77;;;3.80;97.20;;;;;;5034629;28;20041;-69
2022/12/03 05:44:45;;;;;;;44.42;23.90;;;3.80;97.30;;;;;;5033605;28;20504;-69
2022/12/03 05:47:11;;;;;;;46.08;23.33;;;3.80;97.30;;;;;;5032499;28;20069;-70
2022/12/03 05:49:36;;;;;;;47.53;23.75;;;3.70;97.70;;;;;;5016157;28;20144;-69
2022/12/03 05:52:02;;;;;;;41.45;23.23;;;3.70;97.80;;;;;;5033750;28;20111;-70
2022/12/03 05:54:27;;;;;;;47.78;24.00;;;3.70;97.60;;;;;;5016526;28;20029;-70
2022/12/03 05:56:53;;;;;;;48.70;25.17;;;3.70;97.70;;;;;;5033712;28;20040;-70
2022/12/03 05:59:19;;;;;;;46.20;24.48;;;3.70;97.60;;;;;;5032701;28;20172;-70
2022/12/03 06:01:44;;;;;;;44.45;23.20;;;3.70;97.80;;;;;;5033436;28;20052;-70
2022/12/03 06:04:10;;;;;;;45.20;24.35;;;3.60;98.00;;;;;;5033387;28;20037;-70
2022/12/03 06:06:36;;;;;;;43.97;24.15;;;3.60;98.00;;;;;;5033298;28;20041;-70
2022/12/03 06:09:02;;;;;;;48.35;25.23;;;3.60;98.00;;;;;;5032369;28;20466;-71
2022/12/03 06:11:29;;;;;;;39.17;21.05;;;3.60;97.90;;;;;;5015535;28;20037;-70
2022/12/03 06:13:54;;;;;;;40.97;21.25;;;3.60;97.90;;;;;;5033437;28;20083;-70
2022/12/03 06:16:20;;;;;;;41.83;21.48;;;3.50;97.90;;;;;;5034020;28;20037;-69
2022/12/03 06:18:46;;;;;;;41.45;21.85;;;3.60;98.10;;;;;;5034096;28;20041;-70
2022/12/03 06:21:11;;;;;;;38.58;20.20;;;3.70;98.00;;;;;;5033396;28;20063;-70
2022/12/03 06:23:43;;;;;;;40.78;20.02;;;3.70;97.80;;;;;;5031881;28;20503;-70
2022/12/03 06:26:09;;;;;;;37.13;19.20;;;3.70;97.80;;;;;;5033398;28;20040;-70
2022/12/03 06:28:35;;;;;;;37.65;19.00;;;3.70;97.80;;;;;;5033352;28;20172;-70
2022/12/03 06:31:01;;;;;;;39.95;19.25;;;3.80;97.80;;;;;;5033201;28;20061;-70
2022/12/03 06:33:26;;;;;;;37.97;19.25;;;3.90;97.70;;;;;;5032940;28;20034;-70
2022/12/03 06:35:52;;;;;;;37.50;19.70;;;3.90;97.60;;;;;;5031903;28;20034;-70
2022/12/03 06:38:17;;;;;;;39.58;18.90;;;3.90;97.60;;;;;;5033106;28;20041;-70
2022/12/03 06:40:43;;;;;;;35.40;18.35;;;4.00;97.40;;;;;;5033094;28;20030;-69
2022/12/03 06:43:09;;;;;;;39.40;18.40;;;3.90;97.40;;;;;;5033180;28;20033;-69
2022/12/03 06:45:34;;;;;;;36.35;18.17;;;3.90;97.50;;;;;;5015451;28;20512;-69
2022/12/03 06:48:00;;;;;;;34.05;17.92;;;3.80;97.70;;;;;;5033129;28;20448;-69
2022/12/03 06:50:25;;;;;;;39.38;19.20;;;3.90;97.80;;;;;;5032744;28;20383;-69
2022/12/03 06:52:51;;;;;;;38.75;19.15;;;4.00;97.70;;;;;;5033831;28;20049;-69
2022/12/03 06:55:17;;;;;;;38.53;19.20;;;4.00;97.60;;;;;;5015158;28;20128;-70
2022/12/03 06:57:42;;;;;;;37.45;18.80;;;3.90;97.90;;;;;;5035381;28;20042;-69
2022/12/03 07:00:09;;;;;;;39.08;18.80;;;3.80;98.00;;;;;;5035746;28;20034;-69
2022/12/03 07:02:35;;;;;;;39.05;18.95;;;3.90;98.10;;;;;;5035572;28;20470;-70
2022/12/03 07:05:01;;;;;;;43.88;20.50;;;3.90;97.90;;;;;;5036497;28;20489;-70
2022/12/03 07:07:26;;;;;;;45.25;21.17;;;3.90;97.80;;;;;;5019242;28;20025;-70
2022/12/03 07:09:52;;;;;;;40.22;20.05;;;3.90;98.00;;;;;;5036656;28;20034;-70
2022/12/03 07:12:18;;;;;;;44.47;21.33;;;3.80;98.10;;;;;;5035196;28;20037;-69
2022/12/03 07:14:43;;;;;;;47.15;21.52;;;3.80;98.30;;;;;;5037000;28;20466;-70
2022/12/03 07:17:09;;;;;;;56.13;24.85;;;3.70;98.60;;;;;;5036818;28;20034;-70
2022/12/03 07:19:35;;;;;;;51.00;23.27;;;3.60;98.80;;;;;;5036270;28;20040;-70
2022/12/03 07:22:01;;;;;;;54.10;24.73;;;3.60;99.00;;;;;;5037050;28;20429;-69
2022/12/03 07:24:27;;;;;;;53.97;24.75;;;3.60;99.10;;;;;;5018652;28;20524;-69
2022/12/03 07:26:52;;;;;;;51.25;24.55;;;3.70;99.30;;;;;;5036399;28;20034;-68
2022/12/03 07:29:18;;;;;;;52.90;24.05;;;3.80;99.00;;;;;;5039369;28;20090;-69
2022/12/03 07:31:43;;;;;;;53.00;25.08;;;3.80;98.90;;;;;;5039887;28;20045;-69
2022/12/03 07:34:09;;;;;;;49.20;24.23;;;3.80;98.70;;;;;;5036132;28;20033;-70
2022/12/03 07:36:35;;;;;;;51.17;23.83;;;3.70;98.80;;;;;;5018271;28;20029;-70
2022/12/03 07:39:00;;;;;;;51.38;23.98;;;3.70;98.70;;;;;;5035187;28;20044;-70
2022/12/03 07:41:26;;;;;;;57.65;25.35;;;3.80;98.60;;;;;;5034867;28;20025;-71
2022/12/03 07:43:51;;;;;;;56.28;25.83;;;3.80;98.50;;;;;;5035785;28;20113;-70
2022/12/03 07:46:17;;;;;;;60.65;27.98;;;3.70;98.60;;;;;;5035788;28;20389;-70
2022/12/03 07:48:43;;;;;;;56.85;24.85;;;3.80;98.50;;;;;;5036174;28;20545;-70
2022/12/03 07:51:08;;;;;;;61.08;28.50;;;3.80;98.50;;;;;;5031266;28;20438;-70
2022/12/03 07:53:34;;;;;;;62.72;28.33;;;3.80;98.40;;;;;;5031799;28;20034;-69
2022/12/03 07:56:02;;;;;;;62.67;28.15;;;3.70;98.50;;;;;;5014744;28;20493;-69
2022/12/03 07:58:28;;;;;;;63.33;27.92;;;3.80;98.70;;;;;;5015465;28;20511;-70
2022/12/03 08:00:53;;;;;;;59.97;27.08;;;3.70;98.30;;;;;;5015762;28;20030;-70
2022/12/03 08:03:19;;;;;;;59.08;27.95;;;3.70;98.30;;;;;;5015754;28;20029;-70
2022/12/03 08:05:44;;;;;;;60.22;26.33;;;3.60;98.50;;;;;;5014869;28;20034;-70
2022/12/03 08:08:10;;;;;;;64.38;29.33;;;3.70;99.20;;;;;;5014566;28;20049;-70
2022/12/03 08:10:36;;;;;;;69.53;30.75;;;3.80;98.70;;;;;;5015662;28;20026;-71
2022/12/03 08:13:05;;;;;;;58.97;28.55;;;3.70;98.70;;;;;;5015430;28;20037;-72
2022/12/03 08:15:31;;;;;;;61.22;28.52;;;3.80;98.90;;;;;;5015849;28;20033;-71
2022/12/03 08:17:59;;;;;;;62.78;28.90;;;3.80;98.20;;;;;;4997895;28;20045;-70
2022/12/03 08:20:33;;;;;;;58.22;26.05;;;3.70;98.40;;;;;;5015611;28;20411;-70
2022/12/03 08:23:02;;;;;;;60.40;28.95;;;3.70;98.40;;;;;;5015632;28;20124;-70
2022/12/03 08:25:30;;;;;;;66.55;30.50;;;3.70;98.40;;;;;;5014058;28;20026;-70
2022/12/03 08:28:13;;;;;;;65.60;29.35;;;3.60;98.70;;;;;;5015478;28;20038;-70
2022/12/03 08:30:40;;;;;;;63.83;28.45;;;3.60;98.70;;;;;;5015633;28;20092;-70
2022/12/03 08:33:25;;;;;;;67.93;30.02;;;3.60;99.10;;;;;;5015830;28;20026;-71
2022/12/03 08:35:50;;;;;;;63.17;28.85;;;3.70;98.60;;;;;;5015093;28;20029;-72
2022/12/03 08:38:20;;;;;;;67.57;30.02;;;3.70;98.80;;;;;;4997600;28;20548;-73
2022/12/03 08:40:49;;;;;;;63.80;29.20;;;3.70;98.30;;;;;;5030615;28;20065;-70
2022/12/03 08:43:17;;;;;;;61.72;28.08;;;3.70;98.40;;;;;;5015384;28;20464;-70
2022/12/03 08:45:44;;;;;;;55.97;26.42;;;3.70;98.40;;;;;;5015336;28;20033;-71
2022/12/03 08:48:25;;;;;;;65.65;29.70;;;3.70;98.20;;;;;;5015026;28;20064;-70
2022/12/03 08:50:54;;;;;;;55.75;25.92;;;3.90;98.20;;;;;;5015124;28;20030;-70
2022/12/03 08:53:36;;;;;;;62.78;28.17;;;4.00;98.20;;;;;;5034271;28;20049;-71
2022/12/03 08:56:03;;;;;;;64.13;28.75;;;4.10;97.50;;;;;;5034866;28;20133;-70
2022/12/03 08:58:42;;;;;;;62.95;28.20;;;4.10;97.70;;;;;;5034501;28;20088;-70
2022/12/03 09:01:37;;;;;;;56.45;25.55;;;4.00;97.70;;;;;;5034665;28;20351;-70
2022/12/03 09:04:25;;;;;;;56.17;26.30;;;4.10;98.00;;;;;;5034168;28;20033;-70
2022/12/03 09:06:51;;;;;;;51.17;24.15;;;4.20;97.40;;;;;;5034432;28;20030;-70
2022/12/03 09:09:17;;;;;;;60.83;27.35;;;4.20;97.40;;;;;;5033957;28;20025;-70
2022/12/03 09:11:43;;;;;;;61.10;26.70;;;4.10;96.90;;;;;;5033325;28;20034;-70
2022/12/03 09:14:10;;;;;;;58.05;26.67;;;4.00;97.20;;;;;;5033828;28;20022;-71
2022/12/03 09:16:36;;;;;;;61.13;26.73;;;3.90;97.10;;;;;;5034019;28;20026;-70
2022/12/03 09:19:01;;;;;;;57.03;25.90;;;3.80;97.30;;;;;;5034227;28;20029;-69
2022/12/03 09:21:27;;;;;;;54.50;24.15;;;3.80;97.50;;;;;;5034956;28;20028;-73
2022/12/03 09:23:52;;;;;;;61.28;26.55;;;3.70;97.50;;;;;;5032748;28;20033;-69
2022/12/03 09:26:18;;;;;;;66.03;26.98;;;3.80;97.70;;;;;;5033000;28;20029;-69
2022/12/03 09:28:45;;;;;;;65.88;26.38;;;3.70;97.70;;;;;;5016651;28;20048;-70
2022/12/03 09:31:10;;;;;;;62.22;26.92;;;3.70;97.90;;;;;;5032508;28;20064;-70
2022/12/03 09:33:36;;;;;;;57.70;25.40;;;3.70;97.70;;;;;;5033906;28;20053;-70
2022/12/03 09:36:02;;;;;;;60.75;25.83;;;3.80;98.20;;;;;;5033756;28;20493;-70
2022/12/03 09:38:27;;;;;;;57.97;23.67;;;3.90;98.20;;;;;;5031960;28;20060;-70
2022/12/03 09:40:53;;;;;;;60.50;27.45;;;4.10;98.20;;;;;;5033347;28;20034;-73
2022/12/03 09:43:20;;;;;;;56.17;25.08;;;4.20;97.70;;;;;;5034018;28;20484;-72
2022/12/03 09:45:47;;;;;;;58.58;25.10;;;4.20;97.50;;;;;;5033663;28;20082;-73
2022/12/03 09:48:15;;;;;;;56.30;25.40;;;4.20;97.20;;;;;;5015761;28;20143;-71
2022/12/03 09:50:41;;;;;;;49.10;22.52;;;4.20;97.30;;;;;;5033682;28;20032;-71
2022/12/03 09:53:18;;;;;;;49.13;23.40;;;4.20;97.70;;;;;;5032509;28;20367;-71
2022/12/03 09:55:45;;;;;;;46.45;21.65;;;4.30;97.20;;;;;;5015804;28;20052;-71
2022/12/03 09:58:12;;;;;;;50.25;23.73;;;4.30;97.00;;;;;;5032454;28;20380;-71
2022/12/03 10:00:40;;;;;;;49.65;22.38;;;4.40;96.80;;;;;;5016577;28;20343;-72
2022/12/03 10:03:06;;;;;;;48.58;22.10;;;4.40;96.70;;;;;;5033607;28;20056;-71
2022/12/03 10:05:33;;;;;;;46.03;21.58;;;4.40;96.70;;;;;;5032385;28;20065;-71
2022/12/03 10:08:11;;;;;;;44.67;20.33;;;4.40;96.40;;;;;;5033382;28;20025;-71
2022/12/03 10:10:39;;;;;;;44.95;19.58;;;4.30;96.20;;;;;;5033581;28;20052;-71
2022/12/03 10:13:06;;;;;;;42.47;19.33;;;4.30;96.30;;;;;;5033554;28;20112;-71
2022/12/03 10:15:32;;;;;;;48.17;20.25;;;4.40;96.40;;;;;;5032150;28;20381;-71
2022/12/03 10:18:00;;;;;;;40.40;19.60;;;4.40;96.20;;;;;;5033768;28;20044;-72
2022/12/03 10:20:26;;;;;;;37.45;17.65;;;4.30;96.10;;;;;;5033757;28;20041;-71
2022/12/03 10:22:51;;;;;;;38.67;18.33;;;4.30;96.60;;;;;;5033048;28;20466;-71
2022/12/03 10:25:20;;;;;;;46.70;20.13;;;4.40;96.70;;;;;;5033213;28;20041;-70
2022/12/03 10:27:58;;;;;;;43.15;18.80;;;4.40;96.70;;;;;;5032879;28;20025;-68
2022/12/03 10:30:27;;;;;;;43.65;19.67;;;4.40;96.80;;;;;;5033184;28;20030;-71
2022/12/03 10:32:53;;;;;;;44.55;20.13;;;4.30;96.50;;;;;;5032490;28;20065;-70
2022/12/03 10:35:35;;;;;;;45.75;19.10;;;4.20;96.60;;;;;;5033721;28;20030;-71
2022/12/03 10:38:06;;;;;;;46.85;20.42;;;4.20;97.10;;;;;;5033733;28;20029;-74
2022/12/03 10:40:34;;;;;;;46.70;20.85;;;4.20;97.20;;;;;;5033405;28;20113;-74
2022/12/03 10:43:18;;;;;;;48.20;20.92;;;3.90;97.50;;;;;;5015461;28;20026;-74
2022/12/03 10:45:45;;;;;;;49.33;20.95;;;3.90;98.90;;;;;;5031789;28;20045;-75
2022/12/03 10:48:16;;;;;;;52.42;22.50;;;4.00;98.50;;;;;;5032741;28;20489;-77
2022/12/03 10:51:09;;;;;;;52.15;23.25;;;4.00;98.20;;;;;;5032669;28;20025;-76
2022/12/03 10:53:37;;;;;;;52.05;21.20;;;4.20;98.50;;;;;;5009016;28;20056;-74
2022/12/03 10:56:06;;;;;;;46.83;21.98;;;4.20;98.10;;;;;;5013298;28;20033;-76
2022/12/03 10:58:37;;;;;;;48.55;20.85;;;4.10;97.60;;;;;;5012879;28;20030;-75
2022/12/03 11:01:12;;;;;;;41.30;20.35;;;4.10;97.80;;;;;;5012984;28;20029;-72
2022/12/03 11:03:37;;;;;;;46.88;20.42;;;4.00;98.00;;;;;;5028649;28;20267;-73
2022/12/03 11:06:03;;;;;;;42.95;20.48;;;4.10;98.20;;;;;;5013196;28;20260;-73
2022/12/03 11:08:36;;;;;;;51.80;21.40;;;4.00;97.80;;;;;;5011988;28;20084;-73
2022/12/03 11:11:07;;;;;;;41.20;18.33;;;3.80;98.20;;;;;;5028338;28;20049;-73
2022/12/03 11:13:32;;;;;;;44.60;19.67;;;3.80;98.80;;;;;;5028269;28;20045;-73
2022/12/03 11:16:00;;;;;;;46.95;20.35;;;3.90;98.50;;;;;;5012760;28;20034;-72
2022/12/03 11:18:49;;;;;;;46.92;19.88;;;3.80;98.50;;;;;;5011477;28;20038;-73
2022/12/03 11:21:14;;;;;;;40.08;18.48;;;3.70;99.00;;;;;;5004763;28;20038;-74
2022/12/03 11:23:43;;;;;;;43.78;20.17;;;3.70;99.00;;;;;;5012063;28;20521;-73
2022/12/03 11:26:09;;;;;;;45.83;19.80;;;3.70;98.70;;;;;;5012798;28;20064;-73
2022/12/03 11:28:37;;;;;;;45.88;19.42;;;3.60;99.00;;;;;;5011626;28;20030;-73
2022/12/03 11:31:34;;;;;;;37.58;18.02;;;3.60;98.90;;;;;;5013221;28;20041;-74
2022/12/03 11:34:18;;;;;;;44.83;18.77;;;3.60;99.10;;;;;;5027846;28;20030;-73
2022/12/03 11:37:09;;;;;;;45.08;19.33;;;3.80;99.10;;;;;;5012670;28;20109;-73
2022/12/03 11:39:49;;;;;;;41.17;18.45;;;3.90;99.00;;;;;;5012480;28;20037;-73
2022/12/03 11:42:24;;;;;;;45.05;18.13;;;3.80;98.80;;;;;;5012690;28;20072;-74
2022/12/03 11:45:05;;;;;;;40.17;17.67;;;3.70;98.80;;;;;;5030328;28;20022;-73
2022/12/03 11:47:42;;;;;;;40.13;18.45;;;3.70;98.80;;;;;;5015967;28;20095;-73
2022/12/03 11:50:23;;;;;;;40.50;17.70;;;3.80;98.90;;;;;;5016191;28;20492;-73
2022/12/03 11:52:54;;;;;;;39.88;17.50;;;3.90;99.00;;;;;;5029757;28;20095;-73
2022/12/03 11:55:30;;;;;;;45.90;19.35;;;4.00;99.10;;;;;;5035820;28;20025;-73
2022/12/03 11:58:23;;;;;;;43.58;18.38;;;4.00;98.50;;;;;;5018572;28;20036;-73
2022/12/03 12:00:51;;;;;;;38.05;17.45;;;3.90;98.60;;;;;;5009787;28;20473;-73
2022/12/03 12:03:28;;;;;;;43.72;18.65;;;3.90;98.70;;;;;;5035298;28;20017;-73
2022/12/03 12:06:10;;;;;;;38.80;17.83;;;3.90;98.70;;;;;;5035613;28;20080;-74
2022/12/03 12:08:53;;;;;;;41.20;17.48;;;3.80;98.50;;;;;;5035732;28;20022;-74
2022/12/03 12:11:26;;;;;;;44.00;20.20;;;3.70;98.90;;;;;;5035276;28;20536;-74
2022/12/03 12:13:53;;;;;;;49.30;20.70;;;3.60;98.70;;;;;;5035653;28;20028;-73
2022/12/03 12:16:49;;;;;;;46.72;20.83;;;3.50;99.00;;;;;;5035417;28;20037;-73
2022/12/03 12:19:41;;;;;;;47.60;21.27;;;3.50;99.00;;;;;;5033140;28;20034;-75
2022/12/03 12:22:25;;;;;;;50.10;21.42;;;3.50;99.20;;;;;;5035391;28;20060;-76
2022/12/03 12:24:59;;;;;;;50.72;21.25;;;3.60;99.30;;;;;;5034646;28;20037;-76
2022/12/03 12:27:33;;;;;;;56.35;21.15;;;3.60;99.20;;;;;;5034849;28;20033;-78
2022/12/03 12:30:11;;;;;;;44.60;20.70;;;3.40;99.10;;;;;;5034776;28;20208;-73
2022/12/03 12:32:47;;;;;;;49.75;22.10;;;3.40;99.30;;;;;;5035318;28;20044;-72
2022/12/03 12:35:28;;;;;;;53.78;23.15;;;3.70;99.40;;;;;;5035016;28;20029;-72
2022/12/03 12:38:10;;;;;;;52.28;21.63;;;3.60;99.00;;;;;;5035515;28;20116;-72
2022/12/03 12:40:38;;;;;;;53.13;23.02;;;3.60;99.60;;;;;;5035301;28;20089;-72
2022/12/03 12:43:24;;;;;;;52.08;22.65;;;3.50;99.20;;;;;;5035190;28;20109;-72
2022/12/03 12:45:54;;;;;;;56.45;23.70;;;3.50;99.60;;;;;;5035341;28;20136;-73
2022/12/03 12:48:26;;;;;;;60.15;25.17;;;3.60;99.30;;;;;;5034720;28;20034;-71
2022/12/03 12:50:57;;;;;;;48.97;22.40;;;3.50;99.50;;;;;;5035131;28;20030;-71
2022/12/03 12:53:31;;;;;;;58.60;24.23;;;3.70;99.70;;;;;;5034288;28;20053;-71
2022/12/03 12:56:05;;;;;;;58.17;23.30;;;3.80;99.00;;;;;;5034547;28;20057;-73
2022/12/03 12:58:31;;;;;;;;;;;3.80;98.70;;;;;;5035373;28;20038;-73
2022/12/03 13:01:02;;;;;;;55.65;24.17;;;3.70;98.70;;;;;;5017159;28;19931;-72
2022/12/03 13:03:33;;;;;;;59.28;25.27;;;3.70;98.70;;;;;;5016483;28;20033;-73
2022/12/03 13:06:01;;;;;;;70.85;28.75;;;3.60;98.70;;;;;;5017297;28;20025;-73